sensor_id;sensor_type;location;lat;lon;timestamp;temperature;humidity
19829;DHT22;10075;50.924;4.396;2023-02-28T00:00:01;2.60;99.90
19829;DHT22;10075;50.924;4.396;2023-02-28T00:02:34;2.60;99.90
19829;DHT22;10075;50.924;4.396;2023-02-28T00:05:01;2.60;99.90
19829;DHT22;10075;50.924;4.396;2023-02-28T00:07:29;2.60;99.90
19829;DHT22;10075;50.924;4.396;2023-02-28T00:09:57;2.60;99.90
19829;DHT22;10075;50.924;4.396;2023-02-28T00:12:24;2.50;99.90
19829;DHT22;10075;50.924;4.396;2023-02-28T00:14:51;2.50;99.90
19829;DHT22;10075;50.924;4.396;2023-02-28T00:17:19;2.50;99.90
19829;DHT22;10075;50.924;4.396;2023-02-28T00:19:47;2.50;99.90
19829;DHT22;10075;50.924;4.396;2023-02-28T00:22:15;2.50;99.90
19829;DHT22;10075;50.924;4.396;2023-02-28T00:24:42;2.50;99.90
19829;DHT22;10075;50.924;4.396;2023-02-28T00:27:10;2.40;99.90
19829;DHT22;10075;50.924;4.396;2023-02-28T00:29:38;2.50;99.90
19829;DHT22;10075;50.924;4.396;2023-02-28T00:32:05;2.50;99.90
19829;DHT22;10075;50.924;4.396;2023-02-28T00:34:33;2.50;99.90
19829;DHT22;10075;50.924;4.396;2023-02-28T00:37:03;2.50;99.90
19829;DHT22;10075;50.924;4.396;2023-02-28T00:39:31;2.40;99.90
19829;DHT22;10075;50.924;4.396;2023-02-28T00:41:59;2.40;99.90
19829;DHT22;10075;50.924;4.396;2023-02-28T00:44:28;2.40;99.90
19829;DHT22;10075;50.924;4.396;2023-02-28T00:46:55;2.50;99.90
19829;DHT22;10075;50.924;4.396;2023-02-28T00:49:22;2.50;99.90
19829;DHT22;10075;50.924;4.396;2023-02-28T00:51:49;2.40;99.90
19829;DHT22;10075;50.924;4.396;2023-02-28T00:54:18;2.40;99.90
19829;DHT22;10075;50.924;4.396;2023-02-28T00:56:45;2.30;99.90
19829;DHT22;10075;50.924;4.396;2023-02-28T00:59:12;2.40;99.90
19829;DHT22;10075;50.924;4.396;2023-02-28T01:01:41;2.40;99.90
19829;DHT22;10075;50.924;4.396;2023-02-28T01:04:08;2.40;99.90
19829;DHT22;10075;50.924;4.396;2023-02-28T01:06:36;2.30;99.90
19829;DHT22;10075;50.924;4.396;2023-02-28T01:09:03;2.30;99.90
19829;DHT22;10075;50.924;4.396;2023-02-28T01:11:30;2.30;99.90
19829;DHT22;10075;50.924;4.396;2023-02-28T01:13:58;2.30;99.90
19829;DHT22;10075;50.924;4.396;2023-02-28T01:16:26;2.20;99.90
19829;DHT22;10075;50.924;4.396;2023-02-28T01:18:54;2.30;99.90
19829;DHT22;10075;50.924;4.396;2023-02-28T01:21:22;2.20;99.90
19829;DHT22;10075;50.924;4.396;2023-02-28T01:23:50;2.20;99.90
19829;DHT22;10075;50.924;4.396;2023-02-28T01:26:18;2.20;99.90
19829;DHT22;10075;50.924;4.396;2023-02-28T01:28:46;2.20;99.90
19829;DHT22;10075;50.924;4.396;2023-02-28T01:31:14;2.20;99.90
19829;DHT22;10075;50.924;4.396;2023-02-28T01:33:41;2.20;99.90
19829;DHT22;10075;50.924;4.396;2023-02-28T01:36:11;2.20;99.90
19829;DHT22;10075;50.924;4.396;2023-02-28T01:38:39;2.10;99.90
19829;DHT22;10075;50.924;4.396;2023-02-28T01:41:06;2.10;99.90
19829;DHT22;10075;50.924;4.396;2023-02-28T01:43:54;2.10;99.90
19829;DHT22;10075;50.924;4.396;2023-02-28T01:46:21;2.00;99.90
19829;DHT22;10075;50.924;4.396;2023-02-28T01:48:51;2.00;99.90
19829;DHT22;10075;50.924;4.396;2023-02-28T01:51:22;2.00;99.90
19829;DHT22;10075;50.924;4.396;2023-02-28T01:53:54;2.00;99.90
19829;DHT22;10075;50.924;4.396;2023-02-28T01:56:24;1.90;99.90
19829;DHT22;10075;50.924;4.396;2023-02-28T01:58:54;1.90;99.90
19829;DHT22;10075;50.924;4.396;2023-02-28T02:01:22;1.90;99.90
19829;DHT22;10075;50.924;4.396;2023-02-28T02:03:52;1.90;99.90
19829;DHT22;10075;50.924;4.396;2023-02-28T02:06:22;1.90;99.90
19829;DHT22;10075;50.924;4.396;2023-02-28T02:08:50;1.90;99.90
19829;DHT22;10075;50.924;4.396;2023-02-28T02:11:19;1.80;99.90
19829;DHT22;10075;50.924;4.396;2023-02-28T02:16:55;1.80;99.90
19829;DHT22;10075;50.924;4.396;2023-02-28T02:20:02;1.70;99.90
19829;DHT22;10075;50.924;4.396;2023-02-28T02:23:02;1.70;99.90
19829;DHT22;10075;50.924;4.396;2023-02-28T02:25:35;1.60;99.90
19829;DHT22;10075;50.924;4.396;2023-02-28T02:28:22;1.60;99.90
19829;DHT22;10075;50.924;4.396;2023-02-28T02:31:23;1.60;99.90
19829;DHT22;10075;50.924;4.396;2023-02-28T02:37:03;1.60;99.90
19829;DHT22;10075;50.924;4.396;2023-02-28T02:39:40;1.60;99.90
19829;DHT22;10075;50.924;4.396;2023-02-28T02:42:13;1.60;99.90
19829;DHT22;10075;50.924;4.396;2023-02-28T02:44:45;1.60;99.90
19829;DHT22;10075;50.924;4.396;2023-02-28T02:47:17;1.60;99.90
19829;DHT22;10075;50.924;4.396;2023-02-28T02:49:51;1.60;99.90
19829;DHT22;10075;50.924;4.396;2023-02-28T02:52:22;1.60;99.90
19829;DHT22;10075;50.924;4.396;2023-02-28T02:54:52;1.50;99.90
19829;DHT22;10075;50.924;4.396;2023-02-28T02:57:24;1.50;99.90
19829;DHT22;10075;50.924;4.396;2023-02-28T02:59:56;1.50;99.90
19829;DHT22;10075;50.924;4.396;2023-02-28T03:02:23;1.50;99.90
19829;DHT22;10075;50.924;4.396;2023-02-28T03:04:58;1.40;99.90
19829;DHT22;10075;50.924;4.396;2023-02-28T03:07:27;1.40;99.90
19829;DHT22;10075;50.924;4.396;2023-02-28T03:09:55;1.40;99.90
19829;DHT22;10075;50.924;4.396;2023-02-28T03:12:26;1.40;99.90
19829;DHT22;10075;50.924;4.396;2023-02-28T03:15:01;1.30;99.90
19829;DHT22;10075;50.924;4.396;2023-02-28T03:17:47;1.30;99.90
19829;DHT22;10075;50.924;4.396;2023-02-28T03:20:27;1.30;99.90
19829;DHT22;10075;50.924;4.396;2023-02-28T03:23:09;1.30;99.90
19829;DHT22;10075;50.924;4.396;2023-02-28T03:25:45;1.30;99.90
19829;DHT22;10075;50.924;4.396;2023-02-28T03:28:20;1.30;99.90
19829;DHT22;10075;50.924;4.396;2023-02-28T03:30:52;1.30;99.90
19829;DHT22;10075;50.924;4.396;2023-02-28T03:33:23;1.20;99.90
19829;DHT22;10075;50.924;4.396;2023-02-28T03:35:56;1.20;99.90
19829;DHT22;10075;50.924;4.396;2023-02-28T03:38:28;1.20;99.90
19829;DHT22;10075;50.924;4.396;2023-02-28T03:41:00;1.20;99.90
19829;DHT22;10075;50.924;4.396;2023-02-28T03:43:31;1.20;99.90
19829;DHT22;10075;50.924;4.396;2023-02-28T03:46:02;1.20;99.90
19829;DHT22;10075;50.924;4.396;2023-02-28T03:48:34;1.20;99.90
19829;DHT22;10075;50.924;4.396;2023-02-28T03:51:08;1.20;99.90
19829;DHT22;10075;50.924;4.396;2023-02-28T03:53:39;1.20;99.90
19829;DHT22;10075;50.924;4.396;2023-02-28T03:56:13;1.20;99.90
19829;DHT22;10075;50.924;4.396;2023-02-28T03:58:46;1.20;99.90
19829;DHT22;10075;50.924;4.396;2023-02-28T04:01:18;1.10;99.90
19829;DHT22;10075;50.924;4.396;2023-02-28T04:03:47;1.10;99.90
19829;DHT22;10075;50.924;4.396;2023-02-28T04:06:18;1.10;99.90
19829;DHT22;10075;50.924;4.396;2023-02-28T04:08:45;1.10;99.90
19829;DHT22;10075;50.924;4.396;2023-02-28T04:11:19;1.10;99.90
19829;DHT22;10075;50.924;4.396;2023-02-28T04:13:46;1.00;99.90
19829;DHT22;10075;50.924;4.396;2023-02-28T04:16:14;1.00;99.90
19829;DHT22;10075;50.924;4.396;2023-02-28T04:18:41;1.00;99.90
19829;DHT22;10075;50.924;4.396;2023-02-28T04:21:09;0.90;99.90
19829;DHT22;10075;50.924;4.396;2023-02-28T04:23:38;0.90;99.90
19829;DHT22;10075;50.924;4.396;2023-02-28T04:26:05;1.00;99.90
19829;DHT22;10075;50.924;4.396;2023-02-28T04:28:32;1.00;99.90
19829;DHT22;10075;50.924;4.396;2023-02-28T04:31:02;1.00;99.90
19829;DHT22;10075;50.924;4.396;2023-02-28T04:33:31;0.90;99.90
19829;DHT22;10075;50.924;4.396;2023-02-28T04:35:59;0.90;99.90
19829;DHT22;10075;50.924;4.396;2023-02-28T04:38:26;0.90;99.90
19829;DHT22;10075;50.924;4.396;2023-02-28T04:40:57;0.90;99.90
19829;DHT22;10075;50.924;4.396;2023-02-28T04:43:24;0.90;99.90
19829;DHT22;10075;50.924;4.396;2023-02-28T04:45:52;1.10;99.90
19829;DHT22;10075;50.924;4.396;2023-02-28T04:48:20;1.10;99.90
19829;DHT22;10075;50.924;4.396;2023-02-28T04:50:46;1.30;99.90
19829;DHT22;10075;50.924;4.396;2023-02-28T04:53:14;1.40;99.90
19829;DHT22;10075;50.924;4.396;2023-02-28T04:55:40;1.50;99.90
19829;DHT22;10075;50.924;4.396;2023-02-28T04:58:09;1.50;99.90
19829;DHT22;10075;50.924;4.396;2023-02-28T05:00:36;1.60;99.90
19829;DHT22;10075;50.924;4.396;2023-02-28T05:03:03;1.70;99.90
19829;DHT22;10075;50.924;4.396;2023-02-28T05:05:30;1.80;99.90
19829;DHT22;10075;50.924;4.396;2023-02-28T05:07:57;1.90;99.90
19829;DHT22;10075;50.924;4.396;2023-02-28T05:10:24;1.90;99.90
19829;DHT22;10075;50.924;4.396;2023-02-28T05:12:51;2.00;99.90
19829;DHT22;10075;50.924;4.396;2023-02-28T05:15:19;2.00;99.90
19829;DHT22;10075;50.924;4.396;2023-02-28T05:17:46;2.10;99.90
19829;DHT22;10075;50.924;4.396;2023-02-28T05:20:13;2.10;99.90
19829;DHT22;10075;50.924;4.396;2023-02-28T05:22:40;2.20;99.90
19829;DHT22;10075;50.924;4.396;2023-02-28T05:25:09;2.20;99.90
19829;DHT22;10075;50.924;4.396;2023-02-28T05:27:38;2.20;99.90
19829;DHT22;10075;50.924;4.396;2023-02-28T05:30:06;2.30;99.90
19829;DHT22;10075;50.924;4.396;2023-02-28T05:32:37;2.40;99.90
19829;DHT22;10075;50.924;4.396;2023-02-28T05:35:04;2.50;99.90
19829;DHT22;10075;50.924;4.396;2023-02-28T05:37:31;2.50;99.90
19829;DHT22;10075;50.924;4.396;2023-02-28T05:39:58;2.50;99.90
19829;DHT22;10075;50.924;4.396;2023-02-28T05:42:25;2.60;99.90
19829;DHT22;10075;50.924;4.396;2023-02-28T05:44:53;2.60;99.90
19829;DHT22;10075;50.924;4.396;2023-02-28T05:47:19;2.60;99.90
19829;DHT22;10075;50.924;4.396;2023-02-28T05:49:48;2.70;99.90
19829;DHT22;10075;50.924;4.396;2023-02-28T05:52:15;2.70;99.90
19829;DHT22;10075;50.924;4.396;2023-02-28T05:54:42;2.80;99.90
19829;DHT22;10075;50.924;4.396;2023-02-28T05:57:09;2.80;99.90
19829;DHT22;10075;50.924;4.396;2023-02-28T05:59:36;2.80;99.90
19829;DHT22;10075;50.924;4.396;2023-02-28T06:02:05;2.80;99.90
19829;DHT22;10075;50.924;4.396;2023-02-28T06:04:32;2.80;99.90
19829;DHT22;10075;50.924;4.396;2023-02-28T06:07:01;2.80;99.90
19829;DHT22;10075;50.924;4.396;2023-02-28T06:09:29;2.90;99.90
19829;DHT22;10075;50.924;4.396;2023-02-28T06:11:57;2.90;99.90
19829;DHT22;10075;50.924;4.396;2023-02-28T06:14:25;2.90;99.90
19829;DHT22;10075;50.924;4.396;2023-02-28T06:16:52;3.00;99.90
19829;DHT22;10075;50.924;4.396;2023-02-28T06:19:19;3.00;99.90
19829;DHT22;10075;50.924;4.396;2023-02-28T06:21:49;3.00;99.90
19829;DHT22;10075;50.924;4.396;2023-02-28T06:24:19;3.00;99.90
19829;DHT22;10075;50.924;4.396;2023-02-28T06:26:46;3.10;99.90
19829;DHT22;10075;50.924;4.396;2023-02-28T06:29:13;3.10;99.90
19829;DHT22;10075;50.924;4.396;2023-02-28T06:31:42;3.10;99.90
19829;DHT22;10075;50.924;4.396;2023-02-28T06:34:09;3.00;99.90
19829;DHT22;10075;50.924;4.396;2023-02-28T06:36:37;3.10;99.90
19829;DHT22;10075;50.924;4.396;2023-02-28T06:39:05;3.10;99.90
19829;DHT22;10075;50.924;4.396;2023-02-28T06:41:34;3.10;99.90
19829;DHT22;10075;50.924;4.396;2023-02-28T06:44:03;3.20;99.90
19829;DHT22;10075;50.924;4.396;2023-02-28T06:46:31;3.00;99.90
19829;DHT22;10075;50.924;4.396;2023-02-28T06:48:58;3.30;99.90
19829;DHT22;10075;50.924;4.396;2023-02-28T06:51:25;3.30;99.90
19829;DHT22;10075;50.924;4.396;2023-02-28T06:53:52;3.30;99.90
19829;DHT22;10075;50.924;4.396;2023-02-28T06:56:20;3.30;99.90
19829;DHT22;10075;50.924;4.396;2023-02-28T06:58:49;3.30;99.90
19829;DHT22;10075;50.924;4.396;2023-02-28T07:01:18;3.40;99.90
19829;DHT22;10075;50.924;4.396;2023-02-28T07:03:46;3.40;99.90
19829;DHT22;10075;50.924;4.396;2023-02-28T07:06:17;3.30;99.90
19829;DHT22;10075;50.924;4.396;2023-02-28T07:08:44;3.40;99.90
19829;DHT22;10075;50.924;4.396;2023-02-28T07:11:11;3.40;99.90
19829;DHT22;10075;50.924;4.396;2023-02-28T07:13:38;3.50;99.90
19829;DHT22;10075;50.924;4.396;2023-02-28T07:16:10;3.50;99.90
19829;DHT22;10075;50.924;4.396;2023-02-28T07:18:37;3.60;99.90
19829;DHT22;10075;50.924;4.396;2023-02-28T07:21:05;3.60;99.90
19829;DHT22;10075;50.924;4.396;2023-02-28T07:23:33;3.60;99.90
19829;DHT22;10075;50.924;4.396;2023-02-28T07:26:01;3.60;99.90
19829;DHT22;10075;50.924;4.396;2023-02-28T07:28:28;3.60;99.90
19829;DHT22;10075;50.924;4.396;2023-02-28T07:30:55;3.60;99.90
19829;DHT22;10075;50.924;4.396;2023-02-28T07:33:24;3.60;99.90
19829;DHT22;10075;50.924;4.396;2023-02-28T07:35:51;3.80;99.90
19829;DHT22;10075;50.924;4.396;2023-02-28T07:38:18;3.80;99.90
19829;DHT22;10075;50.924;4.396;2023-02-28T07:40:45;3.90;99.90
19829;DHT22;10075;50.924;4.396;2023-02-28T07:43:12;3.90;99.90
19829;DHT22;10075;50.924;4.396;2023-02-28T07:45:39;3.90;99.90
19829;DHT22;10075;50.924;4.396;2023-02-28T07:48:06;3.90;99.90
19829;DHT22;10075;50.924;4.396;2023-02-28T07:50:37;3.90;99.90
19829;DHT22;10075;50.924;4.396;2023-02-28T07:53:03;4.00;99.90
19829;DHT22;10075;50.924;4.396;2023-02-28T07:55:30;4.10;99.90
19829;DHT22;10075;50.924;4.396;2023-02-28T07:57:57;4.10;99.90
19829;DHT22;10075;50.924;4.396;2023-02-28T08:00:25;4.10;99.90
19829;DHT22;10075;50.924;4.396;2023-02-28T08:02:52;4.20;99.90
19829;DHT22;10075;50.924;4.396;2023-02-28T08:05:19;4.30;99.90
19829;DHT22;10075;50.924;4.396;2023-02-28T08:07:48;4.40;99.90
19829;DHT22;10075;50.924;4.396;2023-02-28T08:10:16;4.50;99.90
19829;DHT22;10075;50.924;4.396;2023-02-28T08:12:43;4.60;99.90
19829;DHT22;10075;50.924;4.396;2023-02-28T08:15:10;4.80;99.90
19829;DHT22;10075;50.924;4.396;2023-02-28T08:17:37;4.90;99.90
19829;DHT22;10075;50.924;4.396;2023-02-28T08:20:05;5.10;99.90
19829;DHT22;10075;50.924;4.396;2023-02-28T08:22:32;5.30;99.90
19829;DHT22;10075;50.924;4.396;2023-02-28T08:25:00;5.50;99.90
19829;DHT22;10075;50.924;4.396;2023-02-28T08:27:27;5.60;99.90
19829;DHT22;10075;50.924;4.396;2023-02-28T08:29:54;5.70;99.90
19829;DHT22;10075;50.924;4.396;2023-02-28T08:32:21;5.80;99.90
19829;DHT22;10075;50.924;4.396;2023-02-28T08:34:48;5.80;99.90
19829;DHT22;10075;50.924;4.396;2023-02-28T08:37:15;5.90;99.90
19829;DHT22;10075;50.924;4.396;2023-02-28T08:39:42;6.00;99.90
19829;DHT22;10075;50.924;4.396;2023-02-28T08:42:11;6.00;99.90
19829;DHT22;10075;50.924;4.396;2023-02-28T08:44:38;6.10;99.90
19829;DHT22;10075;50.924;4.396;2023-02-28T08:47:06;6.10;99.90
19829;DHT22;10075;50.924;4.396;2023-02-28T08:49:33;6.20;99.90
19829;DHT22;10075;50.924;4.396;2023-02-28T08:52:00;6.30;99.90
19829;DHT22;10075;50.924;4.396;2023-02-28T08:54:27;6.30;99.90
19829;DHT22;10075;50.924;4.396;2023-02-28T08:56:57;6.30;99.90
19829;DHT22;10075;50.924;4.396;2023-02-28T08:59:25;6.20;99.90
19829;DHT22;10075;50.924;4.396;2023-02-28T09:01:52;6.10;99.90
19829;DHT22;10075;50.924;4.396;2023-02-28T09:04:19;6.00;99.90
19829;DHT22;10075;50.924;4.396;2023-02-28T09:06:46;5.90;99.90
19829;DHT22;10075;50.924;4.396;2023-02-28T09:09:14;5.80;99.90
19829;DHT22;10075;50.924;4.396;2023-02-28T09:11:41;5.70;99.90
19829;DHT22;10075;50.924;4.396;2023-02-28T09:14:08;5.70;99.90
19829;DHT22;10075;50.924;4.396;2023-02-28T09:16:36;5.80;99.90
19829;DHT22;10075;50.924;4.396;2023-02-28T09:19:03;5.80;99.90
19829;DHT22;10075;50.924;4.396;2023-02-28T09:21:30;5.70;99.90
19829;DHT22;10075;50.924;4.396;2023-02-28T09:23:57;5.70;99.90
19829;DHT22;10075;50.924;4.396;2023-02-28T09:26:26;5.70;99.90
19829;DHT22;10075;50.924;4.396;2023-02-28T09:28:54;5.70;99.90
19829;DHT22;10075;50.924;4.396;2023-02-28T09:31:23;5.80;99.90
19829;DHT22;10075;50.924;4.396;2023-02-28T09:33:52;5.80;99.90
19829;DHT22;10075;50.924;4.396;2023-02-28T09:36:20;5.80;99.70
19829;DHT22;10075;50.924;4.396;2023-02-28T09:38:48;5.70;99.70
19829;DHT22;10075;50.924;4.396;2023-02-28T09:41:19;5.70;99.70
19829;DHT22;10075;50.924;4.396;2023-02-28T09:43:49;5.70;99.20
19829;DHT22;10075;50.924;4.396;2023-02-28T09:46:35;5.80;99.50
19829;DHT22;10075;50.924;4.396;2023-02-28T09:49:10;5.80;99.20
19829;DHT22;10075;50.924;4.396;2023-02-28T09:51:48;5.80;98.90
19829;DHT22;10075;50.924;4.396;2023-02-28T09:54:18;5.90;98.70
19829;DHT22;10075;50.924;4.396;2023-02-28T09:56:49;5.90;98.60
19829;DHT22;10075;50.924;4.396;2023-02-28T09:59:29;6.00;98.70
19829;DHT22;10075;50.924;4.396;2023-02-28T10:02:04;6.10;98.90
19829;DHT22;10075;50.924;4.396;2023-02-28T10:04:43;6.20;98.70
19829;DHT22;10075;50.924;4.396;2023-02-28T10:07:35;6.30;98.00
19829;DHT22;10075;50.924;4.396;2023-02-28T10:10:07;6.40;97.50
19829;DHT22;10075;50.924;4.396;2023-02-28T10:12:44;6.30;97.10
19829;DHT22;10075;50.924;4.396;2023-02-28T10:15:14;6.30;97.40
19829;DHT22;10075;50.924;4.396;2023-02-28T10:17:43;6.30;97.40
19829;DHT22;10075;50.924;4.396;2023-02-28T10:20:19;6.40;97.50
19829;DHT22;10075;50.924;4.396;2023-02-28T10:22:53;6.40;97.20
19829;DHT22;10075;50.924;4.396;2023-02-28T10:25:25;6.50;96.60
19829;DHT22;10075;50.924;4.396;2023-02-28T10:27:54;6.50;96.30
19829;DHT22;10075;50.924;4.396;2023-02-28T10:30:24;6.40;96.50
19829;DHT22;10075;50.924;4.396;2023-02-28T10:32:52;6.40;96.90
19829;DHT22;10075;50.924;4.396;2023-02-28T10:35:23;6.50;97.00
19829;DHT22;10075;50.924;4.396;2023-02-28T10:37:53;6.50;96.10
19829;DHT22;10075;50.924;4.396;2023-02-28T10:40:31;6.50;95.90
19829;DHT22;10075;50.924;4.396;2023-02-28T10:43:01;6.60;95.50
19829;DHT22;10075;50.924;4.396;2023-02-28T10:45:30;6.60;95.10
19829;DHT22;10075;50.924;4.396;2023-02-28T10:47:59;6.60;95.30
19829;DHT22;10075;50.924;4.396;2023-02-28T10:50:31;6.70;93.40
19829;DHT22;10075;50.924;4.396;2023-02-28T10:53:14;6.70;93.00
19829;DHT22;10075;50.924;4.396;2023-02-28T10:55:42;6.80;92.80
19829;DHT22;10075;50.924;4.396;2023-02-28T10:58:22;6.80;93.00
19829;DHT22;10075;50.924;4.396;2023-02-28T11:00:50;6.80;92.90
19829;DHT22;10075;50.924;4.396;2023-02-28T11:03:28;6.80;92.70
19829;DHT22;10075;50.924;4.396;2023-02-28T11:05:58;6.80;92.70
19829;DHT22;10075;50.924;4.396;2023-02-28T11:08:25;6.90;92.80
19829;DHT22;10075;50.924;4.396;2023-02-28T11:10:58;6.90;93.10
19829;DHT22;10075;50.924;4.396;2023-02-28T11:13:28;7.00;92.70
19829;DHT22;10075;50.924;4.396;2023-02-28T11:15:58;7.10;92.30
19829;DHT22;10075;50.924;4.396;2023-02-28T11:18:29;7.10;92.00
19829;DHT22;10075;50.924;4.396;2023-02-28T11:20:59;7.10;92.10
19829;DHT22;10075;50.924;4.396;2023-02-28T11:23:29;7.10;92.20
19829;DHT22;10075;50.924;4.396;2023-02-28T11:25:59;7.10;92.20
19829;DHT22;10075;50.924;4.396;2023-02-28T11:28:29;7.20;92.10
19829;DHT22;10075;50.924;4.396;2023-02-28T11:31:04;7.20;92.20
19829;DHT22;10075;50.924;4.396;2023-02-28T11:33:37;7.30;92.40
19829;DHT22;10075;50.924;4.396;2023-02-28T11:36:12;7.20;91.70
19829;DHT22;10075;50.924;4.396;2023-02-28T11:38:40;7.30;92.10
19829;DHT22;10075;50.924;4.396;2023-02-28T11:41:18;7.30;92.30
19829;DHT22;10075;50.924;4.396;2023-02-28T11:43:57;7.20;91.70
19829;DHT22;10075;50.924;4.396;2023-02-28T11:46:32;7.20;91.90
19829;DHT22;10075;50.924;4.396;2023-02-28T11:49:12;7.20;92.00
19829;DHT22;10075;50.924;4.396;2023-02-28T11:51:48;7.30;91.60
19829;DHT22;10075;50.924;4.396;2023-02-28T11:54:28;7.30;90.90
19829;DHT22;10075;50.924;4.396;2023-02-28T11:57:00;7.30;90.50
19829;DHT22;10075;50.924;4.396;2023-02-28T11:59:36;7.20;90.80
19829;DHT22;10075;50.924;4.396;2023-02-28T12:02:35;7.20;91.00
19829;DHT22;10075;50.924;4.396;2023-02-28T12:05:17;7.30;91.10
19829;DHT22;10075;50.924;4.396;2023-02-28T12:07:54;7.30;90.60
19829;DHT22;10075;50.924;4.396;2023-02-28T12:10:25;7.30;91.10
19829;DHT22;10075;50.924;4.396;2023-02-28T12:13:14;7.40;91.00
19829;DHT22;10075;50.924;4.396;2023-02-28T12:16:13;7.50;90.80
19829;DHT22;10075;50.924;4.396;2023-02-28T12:19:00;7.50;90.60
19829;DHT22;10075;50.924;4.396;2023-02-28T12:21:40;7.50;91.00
19829;DHT22;10075;50.924;4.396;2023-02-28T12:24:37;7.50;90.50
19829;DHT22;10075;50.924;4.396;2023-02-28T12:27:09;7.50;90.60
19829;DHT22;10075;50.924;4.396;2023-02-28T12:29:42;7.50;91.20
19829;DHT22;10075;50.924;4.396;2023-02-28T12:32:14;7.60;90.70
19829;DHT22;10075;50.924;4.396;2023-02-28T12:34:46;7.60;90.70
19829;DHT22;10075;50.924;4.396;2023-02-28T12:37:17;7.70;90.50
19829;DHT22;10075;50.924;4.396;2023-02-28T12:39:51;7.80;89.40
19829;DHT22;10075;50.924;4.396;2023-02-28T12:42:24;7.80;89.40
19829;DHT22;10075;50.924;4.396;2023-02-28T12:44:55;7.70;89.30
19829;DHT22;10075;50.924;4.396;2023-02-28T12:47:23;7.70;89.70
19829;DHT22;10075;50.924;4.396;2023-02-28T12:49:54;7.70;88.40
19829;DHT22;10075;50.924;4.396;2023-02-28T12:52:28;7.70;89.00
19829;DHT22;10075;50.924;4.396;2023-02-28T12:55:00;7.70;88.60
19829;DHT22;10075;50.924;4.396;2023-02-28T12:57:34;7.70;88.40
19829;DHT22;10075;50.924;4.396;2023-02-28T13:00:08;7.70;89.50
19829;DHT22;10075;50.924;4.396;2023-02-28T13:03:01;7.80;89.70
19829;DHT22;10075;50.924;4.396;2023-02-28T13:11:29;7.80;86.40
19829;DHT22;10075;50.924;4.396;2023-02-28T13:14:01;7.60;87.30
19829;DHT22;10075;50.924;4.396;2023-02-28T13:19:32;7.60;86.50
19829;DHT22;10075;50.924;4.396;2023-02-28T13:22:01;7.70;86.40
19829;DHT22;10075;50.924;4.396;2023-02-28T13:24:44;7.70;86.20
19829;DHT22;10075;50.924;4.396;2023-02-28T13:27:38;7.70;86.20
19829;DHT22;10075;50.924;4.396;2023-02-28T13:33:25;7.60;86.40
19829;DHT22;10075;50.924;4.396;2023-02-28T13:36:10;7.70;85.60
19829;DHT22;10075;50.924;4.396;2023-02-28T13:38:40;7.70;85.30
19829;DHT22;10075;50.924;4.396;2023-02-28T13:41:43;7.70;86.20
19829;DHT22;10075;50.924;4.396;2023-02-28T13:44:13;7.70;86.80
19829;DHT22;10075;50.924;4.396;2023-02-28T13:47:19;7.70;86.70
19829;DHT22;10075;50.924;4.396;2023-02-28T13:49:47;7.90;86.50
19829;DHT22;10075;50.924;4.396;2023-02-28T13:52:18;7.90;86.70
19829;DHT22;10075;50.924;4.396;2023-02-28T13:57:50;8.00;86.50
19829;DHT22;10075;50.924;4.396;2023-02-28T14:00:31;8.00;86.40
19829;DHT22;10075;50.924;4.396;2023-02-28T14:03:19;8.10;86.50
19829;DHT22;10075;50.924;4.396;2023-02-28T14:06:08;8.10;85.50
19829;DHT22;10075;50.924;4.396;2023-02-28T14:08:37;8.10;85.30
19829;DHT22;10075;50.924;4.396;2023-02-28T14:11:06;8.00;84.60
19829;DHT22;10075;50.924;4.396;2023-02-28T14:13:42;8.00;84.80
19829;DHT22;10075;50.924;4.396;2023-02-28T14:16:14;8.10;85.30
19829;DHT22;10075;50.924;4.396;2023-02-28T14:18:47;8.10;85.90
19829;DHT22;10075;50.924;4.396;2023-02-28T14:21:21;8.10;85.50
19829;DHT22;10075;50.924;4.396;2023-02-28T14:27:15;8.10;85.60
19829;DHT22;10075;50.924;4.396;2023-02-28T14:33:01;8.20;84.60
19829;DHT22;10075;50.924;4.396;2023-02-28T14:35:51;8.00;84.30
19829;DHT22;10075;50.924;4.396;2023-02-28T14:38:24;7.80;85.00
19829;DHT22;10075;50.924;4.396;2023-02-28T14:40:54;7.80;85.60
19829;DHT22;10075;50.924;4.396;2023-02-28T14:43:25;7.80;86.20
19829;DHT22;10075;50.924;4.396;2023-02-28T14:45:55;7.90;86.70
19829;DHT22;10075;50.924;4.396;2023-02-28T14:48:24;8.00;86.90
19829;DHT22;10075;50.924;4.396;2023-02-28T14:50:53;8.20;87.60
19829;DHT22;10075;50.924;4.396;2023-02-28T14:53:23;8.20;87.00
19829;DHT22;10075;50.924;4.396;2023-02-28T14:55:51;8.40;86.60
19829;DHT22;10075;50.924;4.396;2023-02-28T14:58:25;8.40;85.80
19829;DHT22;10075;50.924;4.396;2023-02-28T15:00:53;8.30;86.10
19829;DHT22;10075;50.924;4.396;2023-02-28T15:03:22;8.30;86.60
19829;DHT22;10075;50.924;4.396;2023-02-28T15:05:54;8.40;87.00
19829;DHT22;10075;50.924;4.396;2023-02-28T15:08:23;8.50;87.20
19829;DHT22;10075;50.924;4.396;2023-02-28T15:10:53;8.50;86.20
19829;DHT22;10075;50.924;4.396;2023-02-28T15:13:21;8.40;86.20
19829;DHT22;10075;50.924;4.396;2023-02-28T15:15:53;8.40;86.20
19829;DHT22;10075;50.924;4.396;2023-02-28T15:18:30;8.50;86.70
19829;DHT22;10075;50.924;4.396;2023-02-28T15:21:03;8.40;86.60
19829;DHT22;10075;50.924;4.396;2023-02-28T15:23:31;8.40;87.50
19829;DHT22;10075;50.924;4.396;2023-02-28T15:26:00;8.40;88.60
19829;DHT22;10075;50.924;4.396;2023-02-28T15:28:28;8.60;87.90
19829;DHT22;10075;50.924;4.396;2023-02-28T15:30:58;8.90;87.20
19829;DHT22;10075;50.924;4.396;2023-02-28T15:33:26;9.40;86.20
19829;DHT22;10075;50.924;4.396;2023-02-28T15:36:06;10.00;84.60
19829;DHT22;10075;50.924;4.396;2023-02-28T15:38:35;10.70;82.70
19829;DHT22;10075;50.924;4.396;2023-02-28T15:41:03;11.20;81.00
19829;DHT22;10075;50.924;4.396;2023-02-28T15:43:35;11.90;79.50
19829;DHT22;10075;50.924;4.396;2023-02-28T15:46:05;12.60;76.90
19829;DHT22;10075;50.924;4.396;2023-02-28T15:48:35;13.20;75.00
19829;DHT22;10075;50.924;4.396;2023-02-28T15:51:08;13.80;73.70
19829;DHT22;10075;50.924;4.396;2023-02-28T15:53:47;14.10;72.60
19829;DHT22;10075;50.924;4.396;2023-02-28T15:56:22;14.40;71.80
19829;DHT22;10075;50.924;4.396;2023-02-28T15:58:50;14.60;70.30
19829;DHT22;10075;50.924;4.396;2023-02-28T16:01:23;14.70;69.30
19829;DHT22;10075;50.924;4.396;2023-02-28T16:03:53;14.90;68.70
19829;DHT22;10075;50.924;4.396;2023-02-28T16:06:36;14.90;67.70
19829;DHT22;10075;50.924;4.396;2023-02-28T16:09:06;14.80;67.40
19829;DHT22;10075;50.924;4.396;2023-02-28T16:11:36;14.50;67.20
19829;DHT22;10075;50.924;4.396;2023-02-28T16:14:04;14.70;67.90
19829;DHT22;10075;50.924;4.396;2023-02-28T16:16:32;15.00;67.20
19829;DHT22;10075;50.924;4.396;2023-02-28T16:19:00;15.10;66.80
19829;DHT22;10075;50.924;4.396;2023-02-28T16:21:28;15.00;66.40
19829;DHT22;10075;50.924;4.396;2023-02-28T16:23:55;15.00;66.20
19829;DHT22;10075;50.924;4.396;2023-02-28T16:26:24;15.10;66.00
19829;DHT22;10075;50.924;4.396;2023-02-28T16:28:53;14.70;66.30
19829;DHT22;10075;50.924;4.396;2023-02-28T16:31:20;14.30;66.60
19829;DHT22;10075;50.924;4.396;2023-02-28T16:33:47;14.30;67.60
19829;DHT22;10075;50.924;4.396;2023-02-28T16:36:17;14.60;67.90